createdAt,value
2023-05-15T00:01:01.490Z,10.67
2023-05-15T00:03:29.530Z,10.73
2023-05-15T00:05:57.620Z,11.00
2023-05-15T00:08:25.078Z,10.60
2023-05-15T00:11:00.609Z,11.57
2023-05-15T00:13:21.487Z,10.43
2023-05-15T00:15:48.934Z,10.07
2023-05-15T00:18:16.357Z,13.63
2023-05-15T00:20:43.679Z,13.07
2023-05-15T00:23:11.044Z,12.50
2023-05-15T00:25:38.436Z,11.70
2023-05-15T00:28:05.882Z,10.87
2023-05-15T00:30:33.262Z,11.93
2023-05-15T00:33:00.721Z,12.60
2023-05-15T00:35:28.123Z,10.60
2023-05-15T00:37:55.505Z,11.27
2023-05-15T00:40:24.476Z,12.40
2023-05-15T00:42:52.835Z,10.67
2023-05-15T00:45:20.672Z,10.60
2023-05-15T00:47:48.540Z,10.90
2023-05-15T00:50:16.376Z,12.10
2023-05-15T00:52:43.758Z,13.30
2023-05-15T00:55:11.109Z,11.97
2023-05-15T00:57:38.543Z,11.97
2023-05-15T01:00:08.714Z,11.10
2023-05-15T01:02:37.267Z,10.90
2023-05-15T01:05:07.263Z,12.30
2023-05-15T01:07:36.022Z,11.07
2023-05-15T01:10:04.154Z,10.30
2023-05-15T01:12:32.530Z,14.07
2023-05-15T01:14:59.967Z,12.60
2023-05-15T01:17:27.420Z,11.33
2023-05-15T01:19:56.576Z,10.97
2023-05-15T01:22:28.873Z,12.10
2023-05-15T01:25:06.573Z,12.20
2023-05-15T01:27:41.427Z,12.10
2023-05-15T01:30:16.046Z,11.97
2023-05-15T01:33:01.635Z,10.70
2023-05-15T01:35:33.482Z,11.33
2023-05-15T01:38:20.526Z,12.80
2023-05-15T01:40:52.439Z,11.10
2023-05-15T01:43:21.375Z,13.00
2023-05-15T01:45:48.739Z,11.43
2023-05-15T01:48:17.684Z,11.13
2023-05-15T01:50:46.016Z,11.60
2023-05-15T01:53:14.592Z,11.63
2023-05-15T01:55:42.227Z,12.03
2023-05-15T01:58:09.824Z,11.43
2023-05-15T02:00:39.185Z,22.33
2023-05-15T02:03:07.459Z,12.90
2023-05-15T02:05:35.678Z,12.93
2023-05-15T02:08:04.526Z,11.07
2023-05-15T02:10:33.463Z,12.80
2023-05-15T02:13:01.154Z,11.97
2023-05-15T02:15:29.767Z,11.50
2023-05-15T02:17:57.206Z,14.73
2023-05-15T02:20:24.541Z,14.73
2023-05-15T02:22:51.882Z,19.37
2023-05-15T02:25:19.537Z,14.47
2023-05-15T02:27:51.087Z,13.63
2023-05-15T02:30:22.912Z,11.77
2023-05-15T02:32:58.187Z,13.80
2023-05-15T02:35:33.284Z,12.37
2023-05-15T02:38:02.230Z,13.87
2023-05-15T02:40:30.784Z,13.30
2023-05-15T02:42:58.361Z,12.27
2023-05-15T02:45:26.569Z,14.93
2023-05-15T02:47:54.682Z,12.30
2023-05-15T02:50:22.269Z,15.73
2023-05-15T02:52:49.712Z,14.80
2023-05-15T02:55:17.094Z,12.07
2023-05-15T02:57:44.490Z,12.17
2023-05-15T03:00:12.390Z,17.33
2023-05-15T03:02:39.822Z,12.80
2023-05-15T03:05:07.332Z,13.90
2023-05-15T03:07:35.163Z,12.77
2023-05-15T03:10:02.534Z,13.70
2023-05-15T03:12:29.929Z,12.97
2023-05-15T03:14:57.318Z,13.90
2023-05-15T03:17:24.711Z,11.43
2023-05-15T03:19:52.081Z,16.33
2023-05-15T03:22:19.452Z,13.57
2023-05-15T03:24:46.830Z,13.93
2023-05-15T03:27:14.216Z,11.87
2023-05-15T03:29:41.605Z,15.17
2023-05-15T03:32:09.073Z,12.47
2023-05-15T03:34:37.087Z,13.77
2023-05-15T03:37:04.410Z,13.30
2023-05-15T03:39:31.787Z,12.20
2023-05-15T03:41:59.162Z,12.73
2023-05-15T03:44:26.555Z,11.60
2023-05-15T03:46:54.025Z,13.23
2023-05-15T03:49:24.516Z,13.67
2023-05-15T03:51:51.848Z,15.00
2023-05-15T03:54:19.205Z,13.40
2023-05-15T03:56:46.606Z,13.30
2023-05-15T03:59:13.973Z,12.30
2023-05-15T04:01:55.396Z,12.20
2023-05-15T04:04:10.351Z,13.10
2023-05-15T04:06:37.672Z,13.33
2023-05-15T04:09:05.225Z,14.07
2023-05-15T04:11:34.455Z,12.43
2023-05-15T04:14:01.836Z,11.47
2023-05-15T04:16:29.192Z,12.87
2023-05-15T04:18:56.628Z,12.40
2023-05-15T04:21:24.050Z,12.37
2023-05-15T04:23:51.449Z,11.13
2023-05-15T04:26:18.838Z,12.00
2023-05-15T04:28:56.184Z,14.03
2023-05-15T04:31:15.741Z,10.60
2023-05-15T04:33:43.127Z,11.20
2023-05-15T04:36:10.574Z,11.93
2023-05-15T04:38:38.332Z,12.20
2023-05-15T04:41:05.752Z,11.63
2023-05-15T04:43:33.124Z,12.03
2023-05-15T04:46:00.553Z,10.47
2023-05-15T04:48:27.945Z,11.27
2023-05-15T04:50:55.339Z,14.37
2023-05-15T04:53:22.902Z,12.10
2023-05-15T04:55:51.150Z,10.83
2023-05-15T04:58:18.545Z,13.10
2023-05-15T05:00:45.924Z,12.50
2023-05-15T05:03:13.471Z,13.73
2023-05-15T05:05:40.999Z,14.70
2023-05-15T05:08:08.565Z,12.87
2023-05-15T05:10:35.974Z,14.37
2023-05-15T05:13:03.366Z,11.10
2023-05-15T05:15:30.762Z,12.50
2023-05-15T05:17:58.180Z,14.77
2023-05-15T05:20:25.544Z,13.27
2023-05-15T05:22:52.932Z,12.93
2023-05-15T05:25:20.399Z,16.50
2023-05-15T05:27:47.779Z,16.57
2023-05-15T05:30:15.345Z,14.30
2023-05-15T05:32:42.760Z,17.03
2023-05-15T05:35:10.119Z,18.10
2023-05-15T05:37:38.847Z,14.93
2023-05-15T05:40:08.480Z,16.50
2023-05-15T05:42:35.880Z,18.47
2023-05-15T05:45:03.294Z,20.20
2023-05-15T05:47:30.695Z,20.20
2023-05-15T05:49:58.086Z,22.50
2023-05-15T05:52:25.484Z,23.77
2023-05-15T05:54:52.896Z,29.07
2023-05-15T05:57:20.358Z,29.40
2023-05-15T05:59:49.486Z,27.83
2023-05-15T06:02:17.033Z,29.53
2023-05-15T06:04:44.460Z,29.70
2023-05-15T06:07:12.202Z,31.63
2023-05-15T06:09:39.614Z,31.80
2023-05-15T06:12:08.287Z,35.00
2023-05-15T06:14:35.947Z,35.10
2023-05-15T06:17:03.797Z,33.97
2023-05-15T06:19:31.364Z,36.77
2023-05-15T06:21:58.791Z,38.53
2023-05-15T06:24:26.729Z,44.07
2023-05-15T06:26:54.291Z,41.63
2023-05-15T06:29:21.853Z,46.50
2023-05-15T06:31:49.312Z,42.60
2023-05-15T06:34:16.726Z,44.40
2023-05-15T06:36:44.182Z,44.47
2023-05-15T06:39:11.948Z,49.60
2023-05-15T06:41:39.321Z,48.10
2023-05-15T06:44:06.729Z,47.07
2023-05-15T06:46:34.202Z,48.90
2023-05-15T06:49:01.610Z,50.80
2023-05-15T06:51:29.073Z,47.37
2023-05-15T06:53:56.465Z,52.97
2023-05-15T06:56:23.909Z,51.30
2023-05-15T06:58:51.279Z,50.57
2023-05-15T07:01:18.714Z,44.23
2023-05-15T07:03:46.093Z,46.20
2023-05-15T07:06:13.503Z,46.70
2023-05-15T07:08:40.915Z,45.53
2023-05-15T07:11:08.323Z,46.03
2023-05-15T07:13:35.812Z,44.73
2023-05-15T07:16:03.565Z,49.43
2023-05-15T07:18:31.117Z,45.70
2023-05-15T07:20:58.619Z,51.30
2023-05-15T07:23:26.045Z,41.00
2023-05-15T07:25:56.179Z,42.13
2023-05-15T07:28:23.824Z,47.53
2023-05-15T07:30:52.019Z,45.30
2023-05-15T07:33:19.336Z,40.90
2023-05-15T07:35:46.757Z,45.20
2023-05-15T07:38:14.264Z,49.07
2023-05-15T07:40:41.743Z,41.03
2023-05-15T07:43:09.218Z,41.23
2023-05-15T07:45:36.708Z,47.40
2023-05-15T07:48:20.411Z,39.27
2023-05-15T07:50:48.673Z,44.67
2023-05-15T07:53:19.630Z,45.93
2023-05-15T07:55:47.091Z,48.57
2023-05-15T07:58:14.501Z,46.87
2023-05-15T08:00:41.897Z,42.77
2023-05-15T08:03:09.449Z,55.40
2023-05-15T08:05:36.997Z,49.90
2023-05-15T08:08:04.409Z,46.73
2023-05-15T08:10:31.870Z,44.50
2023-05-15T08:12:59.206Z,47.60
2023-05-15T08:15:26.735Z,50.57
2023-05-15T08:17:54.371Z,44.50
2023-05-15T08:20:21.923Z,48.93
2023-05-15T08:22:49.318Z,47.40
2023-05-15T08:25:16.696Z,46.53
2023-05-15T08:27:44.096Z,48.03
2023-05-15T08:30:11.963Z,46.73
2023-05-15T08:32:39.441Z,48.77
2023-05-15T08:35:07.348Z,46.70
2023-05-15T08:37:34.759Z,47.93
2023-05-15T08:40:02.194Z,46.17
2023-05-15T08:42:33.475Z,49.03
2023-05-15T08:45:00.949Z,45.10
2023-05-15T08:47:31.078Z,51.43
2023-05-15T08:50:01.656Z,47.23
2023-05-15T08:52:29.345Z,47.30
2023-05-15T08:54:57.121Z,48.57
2023-05-15T08:57:24.597Z,45.43
2023-05-15T08:59:53.266Z,47.10
2023-05-15T09:02:21.034Z,41.47
2023-05-15T09:04:48.446Z,40.77
2023-05-15T09:07:16.224Z,45.17
2023-05-15T09:09:45.038Z,44.50
2023-05-15T09:12:13.949Z,44.37
2023-05-15T09:14:41.813Z,45.80
2023-05-15T09:17:12.534Z,43.27
2023-05-15T09:19:40.351Z,43.67
2023-05-15T09:22:17.946Z,42.60
2023-05-15T09:24:47.353Z,43.50
2023-05-15T09:27:14.758Z,44.10
2023-05-15T09:29:43.116Z,44.13
2023-05-15T09:32:11.155Z,41.67
2023-05-15T09:34:39.845Z,38.93
2023-05-15T09:37:08.117Z,36.03
2023-05-15T09:39:37.332Z,40.60
2023-05-15T09:42:08.444Z,39.27
2023-05-15T09:44:35.920Z,43.63
2023-05-15T09:47:04.995Z,40.23
2023-05-15T09:49:33.398Z,43.13
2023-05-15T09:52:01.445Z,41.93
2023-05-15T09:54:30.749Z,44.33
2023-05-15T09:56:59.746Z,43.00
2023-05-15T09:59:27.134Z,44.37
2023-05-15T10:01:54.628Z,40.60
2023-05-15T10:04:22.163Z,46.30
2023-05-15T10:06:49.670Z,45.90
2023-05-15T10:09:17.216Z,44.43
2023-05-15T10:11:45.692Z,45.33
2023-05-15T10:14:14.334Z,51.37
2023-05-15T10:16:42.182Z,47.83
2023-05-15T10:19:10.859Z,48.77
2023-05-15T10:21:39.252Z,44.03
2023-05-15T10:24:07.214Z,47.37
2023-05-15T10:26:38.501Z,44.80
2023-05-15T10:29:07.425Z,44.13
2023-05-15T10:31:38.264Z,41.07
2023-05-15T10:34:06.275Z,38.57
2023-05-15T10:36:34.529Z,42.90
2023-05-15T10:39:03.553Z,37.60
2023-05-15T10:41:32.500Z,41.23
2023-05-15T10:44:00.483Z,41.73
2023-05-15T10:46:31.185Z,43.10
2023-05-15T10:49:00.315Z,38.70
2023-05-15T10:51:29.496Z,40.00
2023-05-15T10:53:57.944Z,36.87
2023-05-15T10:56:31.886Z,41.53
2023-05-15T10:59:00.900Z,37.37
2023-05-15T11:01:31.543Z,36.87
2023-05-15T11:04:15.615Z,37.67
2023-05-15T11:06:44.827Z,37.70
2023-05-15T11:09:29.040Z,39.20
2023-05-15T11:11:57.669Z,39.13
2023-05-15T11:14:26.056Z,36.40
2023-05-15T11:16:55.251Z,37.07
2023-05-15T11:19:23.382Z,36.33
2023-05-15T11:22:01.204Z,34.43
2023-05-15T11:24:29.880Z,40.30
2023-05-15T11:27:01.265Z,35.77
2023-05-15T11:29:28.821Z,35.40
2023-05-15T11:31:56.285Z,41.03
2023-05-15T11:34:31.297Z,33.30
2023-05-15T11:37:00.519Z,35.73
2023-05-15T11:39:28.600Z,31.57
2023-05-15T11:41:55.981Z,32.63
2023-05-15T11:44:24.069Z,29.57
2023-05-15T11:46:51.550Z,29.90
2023-05-15T11:52:40.927Z,28.60
2023-05-15T11:55:09.079Z,31.77
2023-05-15T11:57:38.224Z,28.60
2023-05-15T12:00:42.167Z,29.00
2023-05-15T12:03:14.213Z,33.50
2023-05-15T12:05:50.248Z,31.27
2023-05-15T12:08:14.173Z,29.33
2023-05-15T12:10:42.252Z,30.97
2023-05-15T12:13:10.328Z,26.00
2023-05-15T12:15:41.973Z,31.70
2023-05-15T12:18:09.632Z,31.17
2023-05-15T12:20:37.722Z,27.93
2023-05-15T12:23:05.933Z,29.57
2023-05-15T12:25:37.614Z,29.43
2023-05-15T12:28:06.086Z,29.70
2023-05-15T12:30:34.627Z,32.87
2023-05-15T12:33:03.563Z,25.13
2023-05-15T12:35:34.362Z,30.03
2023-05-15T12:38:04.075Z,25.30
2023-05-15T12:40:33.012Z,24.70
2023-05-15T12:43:01.077Z,21.27
2023-05-15T12:45:28.461Z,15.53
2023-05-15T12:47:57.378Z,19.23
2023-05-15T12:50:27.209Z,21.03
2023-05-15T12:52:56.699Z,17.90
2023-05-15T12:55:28.045Z,33.33
2023-05-15T12:57:58.680Z,21.70
2023-05-15T13:00:26.722Z,19.47
2023-05-15T13:02:54.788Z,21.10
2023-05-15T13:05:26.534Z,15.60
2023-05-15T13:07:54.299Z,17.30
2023-05-15T13:10:23.405Z,17.60
2023-05-15T13:12:52.209Z,17.90
2023-05-15T13:15:24.944Z,25.50
2023-05-15T13:17:56.657Z,18.50
2023-05-15T13:20:24.574Z,18.60
2023-05-15T13:22:52.164Z,19.00
2023-05-15T13:25:20.179Z,17.27
2023-05-15T13:27:48.339Z,21.17
2023-05-15T13:30:15.907Z,18.90
2023-05-15T13:32:43.696Z,21.60
2023-05-15T13:35:11.494Z,17.53
2023-05-15T13:37:38.990Z,18.43
2023-05-15T13:40:10.451Z,16.23
2023-05-15T13:42:40.380Z,17.77
2023-05-15T13:45:09.295Z,18.83
2023-05-15T13:47:38.771Z,17.27
2023-05-15T13:50:06.988Z,18.90
2023-05-15T13:52:34.753Z,19.50
2023-05-15T13:55:02.145Z,21.23
2023-05-15T13:57:29.568Z,24.13
2023-05-15T13:59:56.920Z,20.90
2023-05-15T14:02:26.032Z,17.73
2023-05-15T14:04:56.080Z,18.30
2023-05-15T14:07:24.050Z,20.73
2023-05-15T14:09:51.774Z,17.60
2023-05-15T14:12:19.196Z,20.20
2023-05-15T14:14:46.845Z,19.77
2023-05-15T14:17:14.889Z,19.83
2023-05-15T14:19:42.324Z,28.17
2023-05-15T14:22:09.697Z,18.57
2023-05-15T14:24:37.167Z,17.90
2023-05-15T14:27:04.632Z,16.60
2023-05-15T14:29:32.024Z,16.80
2023-05-15T14:31:59.541Z,19.37
2023-05-15T14:34:26.950Z,20.10
2023-05-15T14:36:54.405Z,20.50
2023-05-15T14:39:21.785Z,20.17
2023-05-15T14:41:49.260Z,21.23
2023-05-15T14:44:16.653Z,20.07
2023-05-15T14:46:45.031Z,21.30
2023-05-15T14:49:12.399Z,25.63
2023-05-15T14:51:39.796Z,19.17
2023-05-15T14:54:07.190Z,22.27
2023-05-15T14:56:34.582Z,21.07
2023-05-15T14:59:01.976Z,19.97
2023-05-15T15:01:29.426Z,18.70
2023-05-15T15:03:56.856Z,19.40
2023-05-15T15:06:24.257Z,17.63
2023-05-15T15:08:51.668Z,20.63
2023-05-15T15:11:19.450Z,18.20
2023-05-15T15:13:46.829Z,23.20
2023-05-15T15:16:14.462Z,19.43
2023-05-15T15:18:42.380Z,17.90
2023-05-15T15:21:09.837Z,18.20
2023-05-15T15:23:37.228Z,20.50
2023-05-15T15:26:04.625Z,17.87
2023-05-15T15:28:33.708Z,16.10
2023-05-15T15:31:01.098Z,17.00
2023-05-15T15:33:28.557Z,17.57
2023-05-15T15:35:56.194Z,19.47
2023-05-15T15:38:23.586Z,17.87
2023-05-15T15:40:51.302Z,15.80
2023-05-15T15:43:18.694Z,19.37
2023-05-15T15:45:46.102Z,20.13
2023-05-15T15:48:13.525Z,16.53
2023-05-15T15:50:40.878Z,16.03
2023-05-15T15:53:08.269Z,19.67
2023-05-15T15:55:35.659Z,16.17
2023-05-15T15:58:03.219Z,18.03
2023-05-15T16:00:30.795Z,22.10
2023-05-15T16:02:58.385Z,16.63
2023-05-15T16:05:25.886Z,17.97
2023-05-15T16:07:53.306Z,19.03
2023-05-15T16:10:20.770Z,19.50
2023-05-15T16:12:48.152Z,17.70
2023-05-15T16:15:22.396Z,17.50
2023-05-15T16:17:46.022Z,17.20
2023-05-15T16:20:13.373Z,21.53
2023-05-15T16:22:41.653Z,15.97
2023-05-15T16:25:09.558Z,16.30
2023-05-15T16:27:36.944Z,13.90
2023-05-15T16:30:04.493Z,16.73
2023-05-15T16:32:33.589Z,14.23
2023-05-15T16:35:01.046Z,13.60
2023-05-15T16:37:28.470Z,15.83
2023-05-15T16:39:55.936Z,15.70
2023-05-15T16:42:23.349Z,12.47
2023-05-15T16:44:50.743Z,10.77
2023-05-15T16:47:18.130Z,11.70
2023-05-15T16:49:47.604Z,12.83
2023-05-15T16:52:14.514Z,14.80
2023-05-15T16:54:41.900Z,12.03
2023-05-15T16:57:09.309Z,12.93
2023-05-15T16:59:36.854Z,12.47
2023-05-15T17:02:04.387Z,16.53
2023-05-15T17:04:33.477Z,11.53
2023-05-15T17:07:00.875Z,11.00
2023-05-15T17:09:28.253Z,12.73
2023-05-15T17:11:55.668Z,11.53
2023-05-15T17:14:23.131Z,11.73
2023-05-15T17:16:50.525Z,10.97
2023-05-15T17:19:18.140Z,13.30
2023-05-15T17:21:46.015Z,11.77
2023-05-15T17:24:14.776Z,11.90
2023-05-15T17:26:42.197Z,12.23
2023-05-15T17:29:10.763Z,13.23
2023-05-15T17:31:41.033Z,11.07
2023-05-15T17:34:08.386Z,12.60
2023-05-15T17:36:35.778Z,12.17
2023-05-15T17:39:03.624Z,13.30
2023-05-15T17:41:31.051Z,13.33
2023-05-15T17:43:58.407Z,16.40
2023-05-15T17:46:25.847Z,13.03
2023-05-15T17:48:53.253Z,13.77
2023-05-15T17:51:20.689Z,11.17
2023-05-15T17:53:48.433Z,14.83
2023-05-15T17:56:15.844Z,11.93
2023-05-15T17:58:43.265Z,11.43
2023-05-15T18:01:10.693Z,12.40
2023-05-15T18:03:38.974Z,13.00
2023-05-15T18:06:07.431Z,12.93
2023-05-15T18:08:34.888Z,12.13
2023-05-15T18:11:06.197Z,18.07
2023-05-15T18:13:31.271Z,18.13
2023-05-15T18:15:58.681Z,15.17
2023-05-15T18:18:26.070Z,15.60
2023-05-15T18:20:53.589Z,13.10
2023-05-15T18:23:21.021Z,14.77
2023-05-15T18:25:49.425Z,15.93
2023-05-15T18:28:16.882Z,13.47
2023-05-15T18:30:47.371Z,14.17
2023-05-15T18:33:14.750Z,14.20
2023-05-15T18:35:42.149Z,16.70
2023-05-15T18:38:09.551Z,16.90
2023-05-15T18:40:36.939Z,14.83
2023-05-15T18:43:05.375Z,18.03
2023-05-15T18:45:32.864Z,19.20
2023-05-15T18:48:00.336Z,15.87
2023-05-15T18:50:27.751Z,22.87
2023-05-15T18:52:55.526Z,21.13
2023-05-15T18:55:23.944Z,24.67
2023-05-15T18:57:51.513Z,22.80
2023-05-15T19:00:33.604Z,28.93
2023-05-15T19:02:48.317Z,22.77
2023-05-15T19:05:15.782Z,24.97
2023-05-15T19:07:43.229Z,23.30
2023-05-15T19:10:10.823Z,25.33
2023-05-15T19:12:38.235Z,23.50
2023-05-15T19:15:05.931Z,24.53
2023-05-15T19:17:33.778Z,27.43
2023-05-15T19:20:01.336Z,25.70
2023-05-15T19:22:28.711Z,23.67
2023-05-15T19:24:56.204Z,24.60
2023-05-15T19:27:23.616Z,24.57
2023-05-15T19:29:51.693Z,26.43
2023-05-15T19:32:19.107Z,27.10
2023-05-15T19:34:48.376Z,26.83
2023-05-15T19:37:15.814Z,30.07
2023-05-15T19:39:43.233Z,31.90
2023-05-15T19:42:10.731Z,27.83
2023-05-15T19:44:38.139Z,31.90
2023-05-15T19:47:05.574Z,28.73
2023-05-15T19:49:32.969Z,30.43
2023-05-15T19:52:00.485Z,28.97
2023-05-15T19:54:27.977Z,26.50
2023-05-15T19:56:56.956Z,27.90
2023-05-15T19:59:24.370Z,28.30
2023-05-15T20:01:51.902Z,28.00
2023-05-15T20:04:20.797Z,29.20
2023-05-15T20:06:48.285Z,24.73
2023-05-15T20:09:15.682Z,27.43
2023-05-15T20:11:43.119Z,23.73
2023-05-15T20:14:10.519Z,23.73
2023-05-15T20:16:38.162Z,24.77
2023-05-15T20:19:05.767Z,22.90
2023-05-15T20:21:33.425Z,23.00
2023-05-15T20:24:00.960Z,26.00
2023-05-15T20:26:28.383Z,26.10
2023-05-15T20:28:55.773Z,23.23
2023-05-15T20:31:23.194Z,24.87
2023-05-15T20:33:50.686Z,28.77
2023-05-15T20:36:18.163Z,27.00
2023-05-15T20:38:46.726Z,29.07
2023-05-15T20:41:14.126Z,26.50
2023-05-15T20:43:41.577Z,29.50
2023-05-15T20:46:09.384Z,28.60
2023-05-15T20:48:37.190Z,28.40
2023-05-15T20:51:04.696Z,27.43
2023-05-15T20:53:32.120Z,39.30
2023-05-15T20:56:03.055Z,29.27
2023-05-15T20:58:30.456Z,30.70
2023-05-15T21:01:02.158Z,35.43
2023-05-15T21:03:29.630Z,33.40
2023-05-15T21:05:57.679Z,35.90
2023-05-15T21:08:25.289Z,30.03
2023-05-15T21:10:54.322Z,30.90
2023-05-15T21:13:22.170Z,34.20
2023-05-15T21:15:49.562Z,33.97
2023-05-15T21:18:18.628Z,32.87
2023-05-15T21:20:46.034Z,35.97
2023-05-15T21:23:13.418Z,37.80
2023-05-15T21:25:42.867Z,34.47
2023-05-15T21:28:10.992Z,36.50
2023-05-15T21:30:38.444Z,33.60
2023-05-15T21:33:06.069Z,34.90
2023-05-15T21:35:34.020Z,36.50
2023-05-15T21:38:01.810Z,40.67
2023-05-15T21:40:29.292Z,39.47
2023-05-15T21:42:56.732Z,38.70
2023-05-15T21:45:24.124Z,39.93
2023-05-15T21:47:51.770Z,43.03
2023-05-15T21:50:19.218Z,38.87
2023-05-15T21:52:46.630Z,44.67
2023-05-15T21:55:14.046Z,43.50
2023-05-15T21:57:41.496Z,42.77
2023-05-15T22:00:09.167Z,47.07
2023-05-15T22:02:36.609Z,46.83
2023-05-15T22:05:04.479Z,48.57
2023-05-15T22:07:31.904Z,44.67
2023-05-15T22:09:59.465Z,48.10
2023-05-15T22:12:26.867Z,47.73
2023-05-15T22:14:58.923Z,51.40
2023-05-15T22:17:23.688Z,52.50
2023-05-15T22:19:51.699Z,50.90
2023-05-15T22:22:19.493Z,46.60
2023-05-15T22:24:46.966Z,51.77
2023-05-15T22:27:15.989Z,54.97
2023-05-15T22:29:43.414Z,56.50
2023-05-15T22:32:10.865Z,53.30
2023-05-15T22:34:38.288Z,58.70
2023-05-15T22:37:05.761Z,59.23
2023-05-15T22:39:33.891Z,50.27
2023-05-15T22:42:01.274Z,55.80
2023-05-15T22:44:28.688Z,52.83
2023-05-15T22:46:56.067Z,50.60
2023-05-15T22:49:26.273Z,58.87
2023-05-15T22:51:54.939Z,52.50
2023-05-15T22:54:23.282Z,59.23
2023-05-15T22:56:51.742Z,59.67
2023-05-15T22:59:19.149Z,65.30
2023-05-15T23:01:46.612Z,65.10
2023-05-15T23:04:14.281Z,66.37
2023-05-15T23:06:41.719Z,64.93
2023-05-15T23:09:09.467Z,70.83
2023-05-15T23:11:37.602Z,64.47
2023-05-15T23:14:05.380Z,64.93
2023-05-15T23:16:32.764Z,66.37
2023-05-15T23:19:00.292Z,72.50
2023-05-15T23:21:28.837Z,67.23
2023-05-15T23:23:56.241Z,67.80
2023-05-15T23:26:23.629Z,70.33
2023-05-15T23:28:51.289Z,73.20
2023-05-15T23:31:18.751Z,66.87
2023-05-15T23:33:46.190Z,69.83
2023-05-15T23:36:13.636Z,70.20
2023-05-15T23:38:41.036Z,65.23
2023-05-15T23:41:08.513Z,69.23
2023-05-15T23:43:35.906Z,73.33
2023-05-15T23:46:03.529Z,70.83
2023-05-15T23:48:31.579Z,69.07
2023-05-15T23:50:59.020Z,71.27
2023-05-15T23:53:26.429Z,72.20
2023-05-15T23:55:53.825Z,61.90
2023-05-15T23:58:21.268Z,67.53
